Time;durP1;ratioP1;P1;durP2;ratioP2;P2;SDS_P1;SDS_P2;PMS_P1;PMS_P2;Temp;Humidity;BMP_temperature;BMP_pressure;BME280_temperature;BME280_humidity;BME280_pressure;Samples;Min_cycle;Max_cycle;Signal;HPM_P1;HPM_P2
2023/02/17 00:00:10;;;;;;;11.30;9.85;;;11.80;1.00;;;;;;5111048;28;20031;-56
2023/02/17 00:02:36;;;;;;;10.82;9.73;;;11.80;1.00;;;;;;5112027;28;20031;-56
2023/02/17 00:05:02;;;;;;;12.93;9.40;;;11.80;1.00;;;;;;5112772;28;20110;-54
2023/02/17 00:07:49;;;;;;;10.48;9.38;;;11.80;1.00;;;;;;5113382;28;20109;-55
2023/02/17 00:10:15;;;;;;;10.90;9.20;;;11.80;1.00;;;;;;5112363;28;20046;-54
2023/02/17 00:12:41;;;;;;;12.00;9.77;;;11.80;1.00;;;;;;5113158;28;20032;-52
2023/02/17 00:18:28;;;;;;;10.40;8.75;;;11.80;1.00;;;;;;5105340;28;20070;-55
2023/02/17 00:20:54;;;;;;;10.68;8.15;;;11.60;1.00;;;;;;5110776;28;20058;-55
2023/02/17 00:23:19;;;;;;;9.98;8.27;;;11.70;1.00;;;;;;5111264;28;20020;-57
2023/02/17 00:25:45;;;;;;;10.25;8.20;;;11.70;1.00;;;;;;5109888;28;20016;-56
2023/02/17 00:28:11;;;;;;;10.68;9.43;;;11.70;1.00;;;;;;5112533;28;20102;-55
2023/02/17 00:30:38;;;;;;;11.02;8.80;;;11.70;1.00;;;;;;5112829;28;20023;-55
2023/02/17 00:33:03;;;;;;;12.95;9.15;;;11.70;1.00;;;;;;5111700;28;20035;-56
2023/02/17 00:35:29;;;;;;;11.70;8.98;;;11.60;1.00;;;;;;5112783;28;20167;-54
2023/02/17 00:37:55;;;;;;;13.52;9.23;;;11.60;1.00;;;;;;5112490;28;20032;-55
2023/02/17 00:40:20;;;;;;;12.60;9.07;;;11.60;1.00;;;;;;5112974;28;20026;-56
2023/02/17 00:42:47;;;;;;;10.73;9.00;;;11.70;1.00;;;;;;5110753;28;20404;-55
2023/02/17 00:45:13;;;;;;;11.30;8.43;;;11.70;1.00;;;;;;5113225;28;20638;-55
2023/02/17 00:47:38;;;;;;;11.23;8.77;;;11.70;1.00;;;;;;5111689;28;20114;-54
2023/02/17 00:50:05;;;;;;;10.25;8.82;;;11.70;1.00;;;;;;5112388;28;20032;-54
2023/02/17 00:52:31;;;;;;;10.65;9.55;;;11.70;1.00;;;;;;5112146;28;20024;-51
2023/02/17 00:54:56;;;;;;;14.15;9.80;;;11.60;1.00;;;;;;5112151;28;20024;-54
2023/02/17 00:57:22;;;;;;;13.85;9.32;;;11.60;1.00;;;;;;5111105;28;20023;-53
2023/02/17 00:59:48;;;;;;;10.93;8.63;;;11.60;1.00;;;;;;5112238;28;20020;-55
2023/02/17 01:02:16;;;;;;;12.30;8.80;;;11.60;1.00;;;;;;5111968;28;20102;-55
2023/02/17 01:04:42;;;;;;;11.57;8.88;;;11.50;1.00;;;;;;5112281;28;20199;-54
2023/02/17 01:07:07;;;;;;;14.90;9.75;;;11.50;1.00;;;;;;5111566;28;20115;-52
2023/02/17 01:09:33;;;;;;;10.80;9.07;;;11.60;1.00;;;;;;5112097;28;20503;-54
2023/02/17 01:11:58;;;;;;;10.90;8.85;;;11.60;1.00;;;;;;5111211;28;20027;-55
2023/02/17 01:14:24;;;;;;;11.27;8.10;;;11.60;1.00;;;;;;5112193;28;20069;-50
2023/02/17 01:16:50;;;;;;;10.30;7.60;;;11.50;1.00;;;;;;5109568;28;20099;-55
2023/02/17 01:19:18;;;;;;;11.15;8.35;;;11.50;1.00;;;;;;5110654;28;20149;-55
2023/02/17 01:21:44;;;;;;;10.25;8.18;;;11.50;1.00;;;;;;5111408;28;20080;-53
2023/02/17 01:24:11;;;;;;;10.50;8.32;;;11.50;1.00;;;;;;5110387;28;20041;-52
2023/02/17 01:29:58;;;;;;;9.50;7.95;;;11.60;1.00;;;;;;5103724;28;20393;-55
2023/02/17 01:32:24;;;;;;;12.45;7.82;;;11.50;1.00;;;;;;5108498;28;20118;-53
2023/02/17 01:34:50;;;;;;;8.50;7.15;;;11.50;1.00;;;;;;5112079;28;20058;-51
2023/02/17 01:37:15;;;;;;;10.85;7.80;;;11.40;1.00;;;;;;5111596;28;20035;-49
2023/02/17 01:39:41;;;;;;;11.57;7.20;;;11.50;1.00;;;;;;5111939;28;20023;-53
2023/02/17 01:42:33;;;;;;;12.45;8.65;;;11.40;1.00;;;;;;5111053;28;20051;-53
2023/02/17 01:48:37;;;;;;;9.45;7.53;;;11.50;1.00;;;;;;5100751;28;20077;-55
2023/02/17 01:51:06;;;;;;;9.65;8.52;;;11.40;1.00;;;;;;5104844;28;20059;-54
2023/02/17 01:53:41;;;;;;;14.35;9.13;;;11.40;1.00;;;;;;5110858;28;20107;-54
2023/02/17 01:56:08;;;;;;;9.93;8.68;;;11.40;1.00;;;;;;5110192;28;20019;-55
2023/02/17 01:58:34;;;;;;;8.65;7.75;;;11.40;1.00;;;;;;5111388;28;20111;-51
2023/02/17 02:01:02;;;;;;;9.48;8.05;;;11.30;1.00;;;;;;5109216;28;20074;-53
2023/02/17 02:03:32;;;;;;;11.27;8.25;;;11.40;1.00;;;;;;5111263;28;20024;-53
2023/02/17 02:05:59;;;;;;;11.20;7.47;;;11.40;1.00;;;;;;5111662;28;20500;-52
2023/02/17 02:08:28;;;;;;;10.75;8.55;;;11.30;1.00;;;;;;5111173;28;20040;-53
2023/02/17 02:10:54;;;;;;;8.68;7.70;;;11.30;1.00;;;;;;5111751;28;20031;-55
2023/02/17 02:13:20;;;;;;;10.25;8.20;;;11.30;1.00;;;;;;5108036;28;20042;-55
2023/02/17 02:16:05;;;;;;;9.23;8.30;;;11.30;1.00;;;;;;5098235;28;20052;-55
2023/02/17 02:18:39;;;;;;;9.05;7.78;;;11.30;1.00;;;;;;5091563;28;20330;-52
2023/02/17 02:21:23;;;;;;;9.38;7.90;;;11.30;1.00;;;;;;5100179;28;20036;-55
2023/02/17 02:23:55;;;;;;;11.80;8.07;;;11.30;1.00;;;;;;5104076;28;20024;-52
2023/02/17 02:26:49;;;;;;;9.15;8.25;;;11.30;1.00;;;;;;5110508;28;20126;-53
2023/02/17 02:29:40;;;;;;;9.30;8.25;;;11.30;1.00;;;;;;5109008;28;20389;-55
2023/02/17 02:32:38;;;;;;;8.35;7.47;;;11.30;1.00;;;;;;5106636;28;20128;-53
2023/02/17 02:35:07;;;;;;;9.05;8.05;;;11.30;1.00;;;;;;5111255;28;20027;-52
2023/02/17 02:37:46;;;;;;;9.60;8.20;;;11.30;1.00;;;;;;5113593;28;20024;-52
2023/02/17 02:40:15;;;;;;;11.15;8.93;;;11.30;1.00;;;;;;5119455;27;20077;-50
2023/02/17 02:42:42;;;;;;;8.75;7.47;;;11.30;1.00;;;;;;5112838;28;20094;-54
2023/02/17 02:45:09;;;;;;;10.50;8.75;;;11.30;1.00;;;;;;5108570;27;20043;-54
2023/02/17 02:47:53;;;;;;;10.10;9.00;;;11.30;1.00;;;;;;5114052;27;20455;-53
2023/02/17 02:50:40;;;;;;;10.18;8.43;;;11.20;1.00;;;;;;5108428;27;20043;-53
2023/02/17 02:53:42;;;;;;;10.07;7.97;;;11.30;1.00;;;;;;5111832;27;20031;-52
2023/02/17 02:56:13;;;;;;;11.00;8.43;;;11.30;1.00;;;;;;5100502;28;20102;-52
2023/02/17 02:59:03;;;;;;;11.73;7.88;;;11.30;1.00;;;;;;5111557;28;20030;-52
2023/02/17 03:01:34;;;;;;;10.90;8.63;;;11.30;1.00;;;;;;5112975;27;20035;-54
2023/02/17 03:04:54;;;;;;;11.30;8.35;;;11.20;1.00;;;;;;5115803;27;20111;-55
2023/02/17 03:08:51;;;;;;;9.75;8.10;;;11.10;1.00;;;;;;5098496;28;20024;-54
2023/02/17 03:11:31;;;;;;;9.93;7.97;;;11.10;1.00;;;;;;5100720;28;20400;-54
2023/02/17 03:14:12;;;;;;;10.88;8.82;;;11.10;1.00;;;;;;5111687;28;20019;-52
2023/02/17 03:16:39;;;;;;;10.63;7.90;;;11.10;1.00;;;;;;5114527;28;20026;-52
2023/02/17 03:19:05;;;;;;;10.88;8.60;;;11.10;1.00;;;;;;5100036;28;20592;-53
2023/02/17 03:21:36;;;;;;;11.40;8.65;;;11.10;1.00;;;;;;5114648;28;20076;-53
2023/02/17 03:24:02;;;;;;;9.77;8.55;;;11.10;1.00;;;;;;5111462;28;20030;-55
2023/02/17 03:26:28;;;;;;;10.18;8.77;;;11.10;1.00;;;;;;5113719;28;20023;-54
2023/02/17 03:28:53;;;;;;;11.35;8.38;;;11.20;1.00;;;;;;5114143;28;20354;-54
2023/02/17 03:31:19;;;;;;;9.80;8.20;;;11.20;1.00;;;;;;5111324;28;20058;-55
2023/02/17 03:33:45;;;;;;;10.45;8.15;;;11.10;1.00;;;;;;5113914;28;20023;-54
2023/02/17 03:36:11;;;;;;;12.38;9.18;;;11.00;1.00;;;;;;5112272;28;20126;-54
2023/02/17 03:38:36;;;;;;;10.20;9.23;;;11.00;1.00;;;;;;5113675;28;20026;-55
2023/02/17 03:41:02;;;;;;;12.52;9.73;;;11.00;1.00;;;;;;5112132;28;20124;-50
2023/02/17 03:43:28;;;;;;;10.88;9.05;;;11.10;1.00;;;;;;5109525;28;20130;-55
2023/02/17 03:45:53;;;;;;;12.02;9.02;;;11.10;1.00;;;;;;5102225;28;20034;-54
2023/02/17 03:48:19;;;;;;;17.10;9.70;;;11.00;1.00;;;;;;5111359;28;20093;-55
2023/02/17 03:50:45;;;;;;;12.82;8.77;;;11.10;1.00;;;;;;5112936;28;20144;-53
2023/02/17 03:53:11;;;;;;;11.52;9.20;;;11.10;1.00;;;;;;5113349;28;20078;-52
2023/02/17 03:55:36;;;;;;;10.70;9.60;;;11.10;1.00;;;;;;5113138;28;20062;-54
2023/02/17 03:58:02;;;;;;;13.30;8.90;;;11.10;1.00;;;;;;5112794;28;20032;-51
2023/02/17 04:00:29;;;;;;;11.32;8.50;;;11.00;1.00;;;;;;5112627;28;20015;-55
2023/02/17 04:02:56;;;;;;;12.60;9.85;;;11.10;1.00;;;;;;5113658;28;20415;-53
2023/02/17 04:05:22;;;;;;;10.98;9.02;;;11.10;1.00;;;;;;5112999;28;20026;-55
2023/02/17 04:07:48;;;;;;;13.70;9.05;;;11.10;1.00;;;;;;5113225;28;20039;-53
2023/02/17 04:10:14;;;;;;;10.10;9.10;;;11.10;1.00;;;;;;5111875;28;20031;-53
2023/02/17 04:12:40;;;;;;;12.13;10.30;;;11.10;1.00;;;;;;5112142;28;20070;-55
2023/02/17 04:15:06;;;;;;;11.60;10.02;;;11.10;1.00;;;;;;5112724;28;20442;-54
2023/02/17 04:17:32;;;;;;;11.13;9.75;;;11.10;1.00;;;;;;5111693;28;20019;-52
2023/02/17 04:19:57;;;;;;;11.70;10.43;;;11.10;1.00;;;;;;5112581;28;20447;-54
2023/02/17 04:22:23;;;;;;;10.38;9.27;;;11.10;1.00;;;;;;5112878;28;20457;-51
2023/02/17 04:24:49;;;;;;;11.75;9.52;;;11.00;1.00;;;;;;5112599;28;20059;-53
2023/02/17 04:27:14;;;;;;;11.77;9.43;;;11.00;1.00;;;;;;5112878;28;20334;-56
2023/02/17 04:29:40;;;;;;;11.93;10.40;;;11.00;1.00;;;;;;5109873;28;20043;-53
2023/02/17 04:32:06;;;;;;;12.23;10.25;;;11.00;1.00;;;;;;5112722;27;20048;-56
2023/02/17 04:34:31;;;;;;;12.18;10.10;;;11.00;1.00;;;;;;5112386;28;20019;-50
2023/02/17 04:36:57;;;;;;;11.23;10.05;;;11.00;1.00;;;;;;5111036;28;20112;-54
2023/02/17 04:39:22;;;;;;;10.98;9.43;;;10.90;1.00;;;;;;5112150;28;20062;-51
2023/02/17 04:41:48;;;;;;;13.30;10.23;;;10.90;1.00;;;;;;5112337;28;20035;-55
2023/02/17 04:44:14;;;;;;;11.68;10.48;;;11.00;1.00;;;;;;5110672;28;20032;-52
2023/02/17 04:46:40;;;;;;;15.35;10.93;;;11.00;1.00;;;;;;5112696;28;20035;-56
2023/02/17 04:49:05;;;;;;;12.70;10.77;;;10.90;1.00;;;;;;5112160;28;20481;-52
2023/02/17 04:51:31;;;;;;;13.10;11.60;;;10.90;1.00;;;;;;5091237;28;20024;-53
2023/02/17 04:53:57;;;;;;;14.23;11.68;;;10.90;1.00;;;;;;5111222;28;20122;-51
2023/02/17 04:56:22;;;;;;;12.82;10.90;;;10.90;1.00;;;;;;5112389;28;20027;-55
2023/02/17 04:58:48;;;;;;;14.90;10.85;;;10.80;1.00;;;;;;5108218;28;20024;-54
2023/02/17 05:01:13;;;;;;;14.68;10.75;;;10.90;1.00;;;;;;5119220;27;20023;-55
2023/02/17 05:03:39;;;;;;;17.90;10.82;;;10.90;1.00;;;;;;5115647;27;20453;-53
2023/02/17 05:06:05;;;;;;;16.58;12.23;;;10.80;1.00;;;;;;5111785;28;20044;-54
2023/02/17 05:08:31;;;;;;;14.88;12.45;;;10.80;1.00;;;;;;5111520;28;20023;-55
2023/02/17 05:10:56;;;;;;;14.05;11.57;;;10.70;1.00;;;;;;5112325;28;20046;-54
2023/02/17 05:13:23;;;;;;;15.52;12.15;;;10.80;1.00;;;;;;5112171;28;20051;-54
2023/02/17 05:15:49;;;;;;;14.50;12.70;;;10.70;1.00;;;;;;5111714;28;20072;-54
2023/02/17 05:18:15;;;;;;;14.90;13.13;;;10.60;1.00;;;;;;5110877;28;20046;-52
2023/02/17 05:20:40;;;;;;;21.02;13.75;;;10.50;1.00;;;;;;5107691;28;20020;-57
2023/02/17 05:23:06;;;;;;;17.88;12.85;;;10.50;1.00;;;;;;5101406;28;20106;-54
2023/02/17 05:25:31;;;;;;;14.88;12.95;;;10.50;1.00;;;;;;5111438;28;20027;-56
2023/02/17 05:27:57;;;;;;;17.25;13.70;;;10.50;1.00;;;;;;5111842;28;20024;-55
2023/02/17 05:30:23;;;;;;;14.80;12.75;;;10.50;1.00;;;;;;5111497;28;20056;-53
2023/02/17 05:32:48;;;;;;;16.03;14.03;;;10.60;1.00;;;;;;5111844;28;20044;-55
2023/02/17 05:35:14;;;;;;;15.20;12.93;;;10.50;1.00;;;;;;5110638;28;20019;-55
2023/02/17 05:37:40;;;;;;;17.70;14.70;;;10.40;1.00;;;;;;5112228;28;20384;-53
2023/02/17 05:40:06;;;;;;;15.53;13.47;;;10.50;1.00;;;;;;5110844;28;20028;-54
2023/02/17 05:42:32;;;;;;;16.17;14.37;;;10.40;1.00;;;;;;5102018;28;20052;-51
2023/02/17 05:44:57;;;;;;;18.80;15.03;;;10.40;1.00;;;;;;5111407;28;20114;-53
2023/02/17 05:47:23;;;;;;;17.70;14.10;;;10.30;1.00;;;;;;5111280;28;20027;-54
2023/02/17 05:49:49;;;;;;;18.67;14.50;;;10.40;1.00;;;;;;5111709;28;20043;-53
2023/02/17 05:52:17;;;;;;;17.27;14.20;;;10.30;1.00;;;;;;5110425;28;20055;-55
2023/02/17 05:54:42;;;;;;;20.33;16.33;;;10.30;1.00;;;;;;5108428;28;20433;-55
2023/02/17 05:57:08;;;;;;;21.17;17.03;;;10.20;1.00;;;;;;5111172;28;20102;-55
2023/02/17 05:59:34;;;;;;;19.00;15.53;;;10.20;1.00;;;;;;5111665;28;20035;-54
2023/02/17 06:01:59;;;;;;;24.23;17.17;;;10.20;1.00;;;;;;5111436;28;20099;-54
2023/02/17 06:04:25;;;;;;;18.10;15.37;;;10.20;1.00;;;;;;5111538;28;20522;-51
2023/02/17 06:06:51;;;;;;;24.07;16.17;;;10.20;1.00;;;;;;5113499;28;20030;-53
2023/02/17 06:09:17;;;;;;;21.97;17.17;;;10.20;1.00;;;;;;5115131;28;20043;-53
2023/02/17 06:11:42;;;;;;;18.93;16.93;;;10.20;1.00;;;;;;5115246;28;20062;-55
2023/02/17 06:14:08;;;;;;;24.27;19.10;;;10.10;1.00;;;;;;5114571;28;20149;-53
2023/02/17 06:16:33;;;;;;;22.87;19.33;;;10.00;1.00;;;;;;5120015;27;20503;-55
2023/02/17 06:19:01;;;;;;;22.83;18.63;;;10.00;1.00;;;;;;5121775;27;20020;-55
2023/02/17 06:21:27;;;;;;;23.07;20.00;;;10.00;1.00;;;;;;5119581;27;20016;-55
2023/02/17 06:23:52;;;;;;;25.00;18.88;;;9.90;1.00;;;;;;5114179;28;20051;-55
2023/02/17 06:26:18;;;;;;;23.93;18.80;;;9.90;1.00;;;;;;5115021;28;20008;-54
2023/02/17 06:28:43;;;;;;;24.60;19.87;;;10.00;1.00;;;;;;5115491;28;20497;-55
2023/02/17 06:31:09;;;;;;;28.23;20.30;;;9.70;1.00;;;;;;5115056;28;20028;-52
2023/02/17 06:33:35;;;;;;;26.00;20.33;;;9.90;1.00;;;;;;5113742;28;20346;-55
2023/02/17 06:36:01;;;;;;;22.53;18.87;;;9.90;1.00;;;;;;5114137;28;20043;-52
2023/02/17 06:38:26;;;;;;;24.47;20.40;;;9.90;1.00;;;;;;5114548;28;20476;-54
2023/02/17 06:40:53;;;;;;;27.00;19.77;;;9.90;1.00;;;;;;5115267;28;20028;-52
2023/02/17 06:43:19;;;;;;;25.17;20.93;;;9.90;1.00;;;;;;5113118;28;20047;-54
2023/02/17 06:45:45;;;;;;;28.53;22.47;;;9.90;1.00;;;;;;5114578;28;20051;-54
2023/02/17 06:48:10;;;;;;;25.30;21.03;;;9.90;1.00;;;;;;5114740;28;20051;-55
2023/02/17 06:50:36;;;;;;;30.57;21.97;;;9.80;1.00;;;;;;5113995;28;20026;-54
2023/02/17 06:53:02;;;;;;;25.97;20.17;;;9.90;1.00;;;;;;5114685;28;20451;-52
2023/02/17 06:55:28;;;;;;;24.47;19.77;;;9.90;1.00;;;;;;5114137;28;20019;-55
2023/02/17 06:57:53;;;;;;;25.73;20.20;;;9.80;1.00;;;;;;5114905;28;20035;-55
2023/02/17 07:00:20;;;;;;;24.07;19.07;;;9.80;1.00;;;;;;5113177;28;20540;-53
2023/02/17 07:02:45;;;;;;;26.17;19.90;;;9.70;1.00;;;;;;5114709;28;20020;-55
2023/02/17 07:05:11;;;;;;;26.00;20.67;;;9.80;1.00;;;;;;5114006;28;20530;-53
2023/02/17 07:07:40;;;;;;;27.23;21.20;;;9.80;1.00;;;;;;5114528;28;20446;-55
2023/02/17 07:10:06;;;;;;;24.27;20.30;;;9.80;1.00;;;;;;5114319;28;20337;-51
2023/02/17 07:12:31;;;;;;;26.33;20.97;;;9.90;1.00;;;;;;5114122;28;20035;-54
2023/02/17 07:14:57;;;;;;;26.20;22.20;;;9.70;1.00;;;;;;5100966;28;20389;-55
2023/02/17 07:17:23;;;;;;;28.10;21.83;;;9.70;1.00;;;;;;5110013;28;20016;-55
2023/02/17 07:19:48;;;;;;;29.00;22.10;;;9.70;1.00;;;;;;5105243;28;20027;-52
2023/02/17 07:22:14;;;;;;;30.00;23.60;;;9.80;1.00;;;;;;5114079;28;20110;-50
2023/02/17 07:24:39;;;;;;;35.60;23.40;;;9.90;1.00;;;;;;5113996;28;20032;-53
2023/02/17 07:27:07;;;;;;;25.23;22.20;;;9.90;1.00;;;;;;5113285;28;20089;-55
2023/02/17 07:29:33;;;;;;;26.80;20.90;;;9.90;1.00;;;;;;5112329;28;20019;-55
2023/02/17 07:31:58;;;;;;;26.90;20.67;;;9.90;1.00;;;;;;5113187;28;20024;-55
2023/02/17 07:34:24;;;;;;;30.13;22.53;;;10.00;1.00;;;;;;5111353;28;20103;-54
2023/02/17 07:36:50;;;;;;;31.60;23.07;;;9.90;1.00;;;;;;5109863;28;20481;-53
2023/02/17 07:39:15;;;;;;;28.53;21.93;;;10.00;1.00;;;;;;5109191;28;20236;-55
2023/02/17 07:41:41;;;;;;;27.77;23.47;;;10.10;1.00;;;;;;5103094;28;20120;-55
2023/02/17 07:44:07;;;;;;;30.20;22.53;;;10.10;1.00;;;;;;5113381;28;20055;-56
2023/02/17 07:46:32;;;;;;;32.63;24.27;;;10.00;1.00;;;;;;5113489;28;20032;-52
2023/02/17 07:48:58;;;;;;;31.50;23.00;;;10.10;1.00;;;;;;5113906;28;20019;-53
2023/02/17 07:51:24;;;;;;;29.87;23.57;;;10.10;1.00;;;;;;5112905;27;20027;-55
2023/02/17 07:53:50;;;;;;;27.63;22.27;;;10.20;1.00;;;;;;5112210;28;20466;-55
2023/02/17 07:56:20;;;;;;;33.60;23.77;;;10.20;1.00;;;;;;5113159;28;20023;-54
2023/02/17 07:58:46;;;;;;;33.10;22.20;;;10.20;1.00;;;;;;5112967;28;20153;-54
2023/02/17 08:01:15;;;;;;;31.80;22.97;;;10.30;1.00;;;;;;5113259;28;20016;-55
2023/02/17 08:03:42;;;;;;;30.53;24.10;;;10.30;1.00;;;;;;5104875;28;20441;-53
2023/02/17 08:06:19;;;;;;;34.75;22.92;;;10.30;1.00;;;;;;5113308;28;20031;-54
2023/02/17 08:14:16;;;;;;;36.07;23.67;;;10.40;1.00;;;;;;5109643;28;20043;-53
2023/02/17 08:16:42;;;;;;;33.70;24.20;;;10.40;1.00;;;;;;5113306;28;20024;-57
2023/02/17 08:19:07;;;;;;;40.03;25.85;;;10.40;1.00;;;;;;5113213;28;20477;-54
2023/02/17 08:21:33;;;;;;;34.22;25.52;;;10.40;1.00;;;;;;5112847;28;20023;-65
2023/02/17 08:23:59;;;;;;;36.85;25.23;;;10.50;1.00;;;;;;5111306;28;20031;-56
2023/02/17 08:26:25;;;;;;;36.03;24.67;;;10.50;1.00;;;;;;5111385;28;20415;-56
2023/02/17 08:28:51;;;;;;;34.47;25.48;;;10.60;1.00;;;;;;5109793;28;20031;-58
2023/02/17 08:31:28;;;;;;;31.95;24.20;;;10.60;1.00;;;;;;5107461;28;20039;-59
2023/02/17 08:33:55;;;;;;;36.03;25.20;;;10.60;1.00;;;;;;5112850;28;20468;-60
2023/02/17 08:36:25;;;;;;;34.53;24.23;;;10.60;1.00;;;;;;5112378;28;20030;-61
2023/02/17 08:38:52;;;;;;;31.30;24.30;;;10.70;1.00;;;;;;5111402;28;20024;-57
2023/02/17 08:41:29;;;;;;;35.15;25.15;;;10.70;1.00;;;;;;5112163;28;20023;-58
2023/02/17 08:43:56;;;;;;;30.83;24.48;;;10.80;1.00;;;;;;5112617;28;20043;-56
2023/02/17 08:46:22;;;;;;;33.72;25.77;;;10.70;1.00;;;;;;5111629;28;20035;-55
2023/02/17 08:48:48;;;;;;;33.47;24.45;;;10.80;1.00;;;;;;5112114;28;20035;-57
2023/02/17 08:51:15;;;;;;;31.50;25.30;;;10.80;1.00;;;;;;5112192;28;20024;-56
2023/02/17 08:53:44;;;;;;;35.03;25.75;;;10.80;1.00;;;;;;5112113;28;20035;-59
2023/02/17 08:56:10;;;;;;;32.45;25.33;;;10.90;1.00;;;;;;5112088;28;20012;-57
2023/02/17 08:58:36;;;;;;;38.80;25.38;;;11.00;1.00;;;;;;5112719;28;20030;-52
2023/02/17 09:01:02;;;;;;;36.65;25.63;;;11.00;1.00;;;;;;5112058;28;20485;-58
2023/02/17 09:03:29;;;;;;;34.65;25.42;;;11.00;1.00;;;;;;5113480;27;20024;-60
2023/02/17 09:05:56;;;;;;;34.63;25.98;;;11.10;1.00;;;;;;5125386;27;20023;-59
2023/02/17 09:08:22;;;;;;;36.90;26.67;;;11.10;1.00;;;;;;5112496;28;20024;-57
2023/02/17 09:10:48;;;;;;;35.40;26.10;;;11.20;1.00;;;;;;5112233;28;20517;-59
2023/02/17 09:13:13;;;;;;;32.95;23.85;;;11.20;1.00;;;;;;5112064;28;20031;-56
2023/02/17 09:15:39;;;;;;;35.28;25.23;;;11.30;1.00;;;;;;5111868;28;20019;-53
2023/02/17 09:18:05;;;;;;;34.85;25.20;;;11.30;1.00;;;;;;5112649;28;20055;-52
2023/02/17 09:20:31;;;;;;;31.92;24.85;;;11.40;1.00;;;;;;5111755;28;20098;-51
2023/02/17 09:22:56;;;;;;;32.88;25.92;;;11.30;1.00;;;;;;5111978;28;20031;-57
2023/02/17 09:25:22;;;;;;;35.03;24.38;;;11.40;1.00;;;;;;5112280;28;20095;-54
2023/02/17 09:27:48;;;;;;;29.40;23.27;;;11.40;1.00;;;;;;5112251;28;20020;-55
2023/02/17 09:30:14;;;;;;;35.08;24.58;;;11.50;1.00;;;;;;5111813;28;20019;-55
2023/02/17 09:32:41;;;;;;;33.75;24.20;;;11.50;1.00;;;;;;5125765;28;20088;-57
2023/02/17 09:35:07;;;;;;;31.60;24.17;;;11.50;1.00;;;;;;5112153;27;20022;-57
2023/02/17 09:37:32;;;;;;;28.35;24.13;;;11.60;1.00;;;;;;5111789;28;20303;-58
2023/02/17 09:39:58;;;;;;;33.53;24.90;;;11.60;1.00;;;;;;5085228;28;20016;-59
2023/02/17 09:42:26;;;;;;;33.92;25.23;;;11.60;1.00;;;;;;5101675;28;20055;-58
2023/02/17 09:45:07;;;;;;;28.77;23.00;;;11.70;1.00;;;;;;5114159;28;20122;-53
2023/02/17 09:47:58;;;;;;;27.63;22.17;;;11.70;1.00;;;;;;5106147;28;20102;-60
2023/02/17 09:50:33;;;;;;;35.13;22.02;;;11.80;1.00;;;;;;5116055;28;20012;-52
2023/02/17 09:53:05;;;;;;;27.52;21.55;;;11.90;1.00;;;;;;5115841;28;20380;-53
2023/02/17 09:55:37;;;;;;;27.88;22.75;;;11.90;1.00;;;;;;5115303;28;20394;-55
2023/02/17 09:58:24;;;;;;;28.83;21.60;;;11.90;1.00;;;;;;5109072;28;20092;-57
2023/02/17 10:00:54;;;;;;;33.15;22.55;;;12.00;1.00;;;;;;5102386;28;20027;-53
2023/02/17 10:03:29;;;;;;;27.63;19.10;;;12.00;1.00;;;;;;5114491;28;20126;-56
2023/02/17 10:06:18;;;;;;;28.52;21.70;;;12.10;1.00;;;;;;5102766;28;20455;-55
2023/02/17 10:08:51;;;;;;;28.55;22.52;;;12.10;1.00;;;;;;5115649;28;20042;-59
2023/02/17 10:11:28;;;;;;;25.83;20.70;;;12.20;1.00;;;;;;5114958;28;20023;-57
2023/02/17 10:13:59;;;;;;;28.17;20.55;;;12.20;1.00;;;;;;5115660;28;20421;-58
2023/02/17 10:16:30;;;;;;;28.23;21.45;;;12.30;1.00;;;;;;5115432;28;20064;-56
2023/02/17 10:19:12;;;;;;;26.08;20.45;;;12.30;1.00;;;;;;5114228;28;20445;-54
2023/02/17 10:21:44;;;;;;;25.55;20.13;;;12.40;1.00;;;;;;5115488;28;20473;-59
2023/02/17 10:24:10;;;;;;;27.15;19.75;;;12.40;1.00;;;;;;5114302;28;20492;-59
2023/02/17 10:27:06;;;;;;;24.02;18.50;;;12.50;1.00;;;;;;5115527;28;20024;-55
2023/02/17 10:30:08;;;;;;;24.50;19.13;;;12.50;1.00;;;;;;5113936;28;20093;-60
2023/02/17 10:33:22;;;;;;;26.15;19.23;;;12.60;1.00;;;;;;5113609;28;20522;-59
2023/02/17 10:35:51;;;;;;;24.10;17.55;;;12.60;1.00;;;;;;5063433;28;20040;-60
2023/02/17 10:38:27;;;;;;;18.15;15.32;;;12.60;1.00;;;;;;5110963;28;20118;-53
2023/02/17 10:40:54;;;;;;;19.58;16.02;;;12.70;1.00;;;;;;5114985;28;20024;-58
2023/02/17 10:43:26;;;;;;;18.90;16.27;;;12.80;1.00;;;;;;5114914;28;20092;-57
2023/02/17 10:45:52;;;;;;;19.42;14.40;;;12.80;1.00;;;;;;5114893;28;20042;-57
2023/02/17 10:48:20;;;;;;;20.17;14.93;;;12.80;1.00;;;;;;5114875;28;20023;-54
2023/02/17 10:50:47;;;;;;;18.00;14.00;;;12.90;1.00;;;;;;5109723;28;20176;-56
2023/02/17 10:53:21;;;;;;;18.98;15.60;;;12.90;1.00;;;;;;5104379;28;20081;-53
2023/02/17 10:56:03;;;;;;;16.55;14.43;;;12.90;1.00;;;;;;5114433;28;20042;-59
2023/02/17 10:58:35;;;;;;;15.55;13.60;;;13.00;1.00;;;;;;5104977;28;20059;-57
2023/02/17 11:01:04;;;;;;;16.23;13.95;;;13.00;1.00;;;;;;5113918;28;20102;-70
2023/02/17 11:03:31;;;;;;;15.52;13.85;;;13.00;1.00;;;;;;5115016;28;20144;-58
2023/02/17 11:06:03;;;;;;;16.00;13.20;;;13.00;1.00;;;;;;5114363;28;20024;-57
2023/02/17 11:08:43;;;;;;;17.48;14.50;;;13.20;1.00;;;;;;5114411;28;20055;-54
2023/02/17 11:11:23;;;;;;;17.40;15.40;;;13.20;1.00;;;;;;5113188;28;20081;-59
2023/02/17 11:14:03;;;;;;;17.38;14.15;;;13.20;1.00;;;;;;5114645;28;20071;-58
2023/02/17 11:16:42;;;;;;;14.60;12.60;;;13.20;1.00;;;;;;5114159;28;20030;-54
2023/02/17 11:19:25;;;;;;;15.65;12.90;;;13.30;1.00;;;;;;5114347;28;20023;-58
2023/02/17 11:21:52;;;;;;;13.82;12.00;;;13.30;1.00;;;;;;5114126;28;20036;-60
2023/02/17 11:24:18;;;;;;;15.38;13.27;;;13.30;1.00;;;;;;5114202;27;20023;-60
2023/02/17 11:26:58;;;;;;;15.70;12.90;;;13.40;1.00;;;;;;5104294;28;20168;-59
2023/02/17 11:29:24;;;;;;;14.02;12.10;;;13.40;1.00;;;;;;5114434;28;20075;-60
2023/02/17 11:31:58;;;;;;;15.98;12.75;;;13.50;1.00;;;;;;5113580;28;20477;-57
2023/02/17 11:34:29;;;;;;;16.70;13.15;;;13.60;1.00;;;;;;5114155;28;20024;-57
2023/02/17 11:37:01;;;;;;;15.77;12.68;;;13.60;1.00;;;;;;5102213;28;20041;-53
2023/02/17 11:39:27;;;;;;;16.77;12.48;;;13.70;1.00;;;;;;5113785;28;20048;-58
2023/02/17 11:41:54;;;;;;;17.02;12.82;;;13.80;1.00;;;;;;5113462;28;20051;-56
2023/02/17 11:44:25;;;;;;;16.17;14.50;;;13.80;1.00;;;;;;5113837;28;20020;-69
2023/02/17 11:47:11;;;;;;;15.25;13.70;;;14.00;1.00;;;;;;5113088;28;20133;-50
2023/02/17 11:49:36;;;;;;;15.52;13.25;;;14.20;1.00;;;;;;5094832;28;20073;-51
2023/02/17 11:52:25;;;;;;;16.48;13.63;;;14.30;1.00;;;;;;5106290;28;20035;-48
2023/02/17 11:54:59;;;;;;;13.57;12.15;;;14.30;1.00;;;;;;5114028;28;20027;-55
2023/02/17 11:58:00;;;;;;;16.88;14.32;;;14.30;1.00;;;;;;5113320;28;20035;-55
2023/02/17 12:00:49;;;;;;;16.65;13.43;;;14.30;1.00;;;;;;5113527;27;20050;-58
2023/02/17 12:03:26;;;;;;;14.73;12.27;;;14.10;1.00;;;;;;5100995;28;20024;-59
2023/02/17 12:06:07;;;;;;;16.27;12.35;;;14.00;1.00;;;;;;5112036;28;20122;-59
2023/02/17 12:08:56;;;;;;;13.93;12.50;;;14.00;1.00;;;;;;5113589;28;20030;-60
2023/02/17 12:11:32;;;;;;;14.15;12.07;;;14.10;1.00;;;;;;5112946;28;20030;-59
2023/02/17 12:17:36;;;;;;;16.83;13.00;;;14.20;1.00;;;;;;5103064;28;20085;-59
2023/02/17 12:20:23;;;;;;;14.52;12.85;;;14.20;1.00;;;;;;5113132;28;20022;-59
2023/02/17 12:23:17;;;;;;;17.83;13.13;;;14.30;1.00;;;;;;5108067;28;20107;-59
2023/02/17 12:25:55;;;;;;;17.00;13.57;;;14.30;1.00;;;;;;5096480;28;20045;-59
2023/02/17 12:28:44;;;;;;;20.38;15.02;;;14.40;1.00;;;;;;5112660;28;20026;-59
2023/02/17 12:31:33;;;;;;;19.00;13.48;;;14.50;1.00;;;;;;5113330;28;20082;-59
2023/02/17 12:34:05;;;;;;;16.60;13.82;;;14.60;1.00;;;;;;5113123;28;20039;-59
2023/02/17 12:36:35;;;;;;;14.93;13.23;;;14.80;1.00;;;;;;5113058;27;20019;-59
2023/02/17 12:39:27;;;;;;;16.88;13.57;;;14.70;1.00;;;;;;5113006;28;20027;-59
2023/02/17 12:42:03;;;;;;;15.18;13.02;;;14.80;1.00;;;;;;5103916;28;20036;-59
2023/02/17 12:44:33;;;;;;;16.92;13.50;;;14.90;1.00;;;;;;5113151;28;20099;-59
2023/02/17 12:47:08;;;;;;;18.27;15.00;;;14.90;1.00;;;;;;5112943;28;20016;-59
2023/02/17 12:49:46;;;;;;;17.38;13.27;;;14.90;1.00;;;;;;5100653;28;20024;-59
2023/02/17 12:52:27;;;;;;;14.98;13.38;;;15.00;1.00;;;;;;5098957;28;20054;-59
2023/02/17 12:55:21;;;;;;;14.85;13.00;;;14.90;1.00;;;;;;5127530;27;20028;-59
2023/02/17 12:57:56;;;;;;;16.58;14.52;;;15.00;1.00;;;;;;5112811;28;20116;-59
2023/02/17 13:00:32;;;;;;;21.30;15.57;;;15.10;1.00;;;;;;5111299;28;20094;-61
2023/02/17 13:03:00;;;;;;;15.43;13.63;;;15.20;1.00;;;;;;5107896;28;20073;-60
2023/02/17 13:05:57;;;;;;;18.40;14.52;;;15.40;1.00;;;;;;5109623;28;20483;-60
2023/02/17 13:08:41;;;;;;;17.85;14.02;;;15.30;1.00;;;;;;5112584;28;20373;-58
2023/02/17 13:11:12;;;;;;;18.33;15.07;;;15.40;1.00;;;;;;5095359;28;20439;-56
2023/02/17 13:13:38;;;;;;;17.80;14.27;;;15.40;1.00;;;;;;5108048;28;20047;-60
2023/02/17 13:16:12;;;;;;;17.55;14.93;;;15.40;1.00;;;;;;5101584;27;20019;-59